createdAt,value
2023-01-05T00:00:20.506Z,10.35
2023-01-05T00:01:20.498Z,10.33
2023-01-05T00:02:24.383Z,10.33
2023-01-05T00:03:20.364Z,10.23
2023-01-05T00:04:20.358Z,10.30
2023-01-05T00:05:20.312Z,10.34
2023-01-05T00:06:20.344Z,10.16
2023-01-05T00:07:20.233Z,10.17
2023-01-05T00:08:20.196Z,10.13
2023-01-05T00:09:20.159Z,10.17
2023-01-05T00:10:20.134Z,10.17
2023-01-05T00:11:20.115Z,10.15
2023-01-05T00:12:20.127Z,10.12
2023-01-05T00:13:20.064Z,10.13
2023-01-05T00:14:20.000Z,10.07
2023-01-05T00:15:19.956Z,10.12
2023-01-05T00:16:19.936Z,10.09
2023-01-05T00:17:19.890Z,10.16
2023-01-05T00:18:19.937Z,10.19
2023-01-05T00:19:19.830Z,10.16
2023-01-05T00:20:19.801Z,10.23
2023-01-05T00:21:19.768Z,10.12
2023-01-05T00:22:19.728Z,10.12
2023-01-05T00:23:19.694Z,10.20
2023-01-05T00:24:19.706Z,10.10
2023-01-05T00:25:19.620Z,10.16
2023-01-05T00:26:19.588Z,10.25
2023-01-05T00:27:19.560Z,10.26
2023-01-05T00:28:19.524Z,10.28
2023-01-05T00:29:19.532Z,10.31
2023-01-05T00:30:19.456Z,10.44
2023-01-05T00:31:19.451Z,10.53
2023-01-05T00:32:19.388Z,10.53
2023-01-05T00:33:19.365Z,10.60
2023-01-05T00:34:19.322Z,10.68
2023-01-05T00:35:19.362Z,10.64
2023-01-05T00:36:19.278Z,10.76
2023-01-05T00:37:19.213Z,10.75
2023-01-05T00:38:19.203Z,10.78
2023-01-05T00:39:19.152Z,10.78
2023-01-05T00:40:19.124Z,10.82
2023-01-05T00:41:19.138Z,10.87
2023-01-05T00:42:19.050Z,10.84
2023-01-05T00:43:19.008Z,10.84
2023-01-05T00:44:18.979Z,10.94
2023-01-05T00:45:18.979Z,10.99
2023-01-05T00:46:18.937Z,10.96
2023-01-05T00:47:18.952Z,10.96
2023-01-05T00:48:18.868Z,10.93
2023-01-05T00:49:18.801Z,10.93
2023-01-05T00:50:18.792Z,10.90
2023-01-05T00:51:18.743Z,10.89
2023-01-05T00:52:18.714Z,10.82
2023-01-05T00:53:18.725Z,10.90
2023-01-05T00:54:18.638Z,10.87
2023-01-05T00:55:18.664Z,10.75
2023-01-05T00:56:18.572Z,10.92
2023-01-05T00:57:18.545Z,10.84
2023-01-05T00:58:18.506Z,10.87
2023-01-05T00:59:18.468Z,10.89
2023-01-05T01:00:18.515Z,10.86
2023-01-05T01:01:18.487Z,10.90
2023-01-05T01:02:18.519Z,10.82
2023-01-05T01:03:18.366Z,10.78
2023-01-05T01:04:18.297Z,10.76
2023-01-05T01:05:18.340Z,10.90
2023-01-05T01:06:18.238Z,10.82
2023-01-05T01:07:18.198Z,10.87
2023-01-05T01:08:18.166Z,10.84
2023-01-05T01:09:18.143Z,10.89
2023-01-05T01:10:18.127Z,10.87
2023-01-05T01:11:18.131Z,10.92
2023-01-05T01:12:18.030Z,10.89
2023-01-05T01:13:17.996Z,10.90
2023-01-05T01:14:17.967Z,10.72
2023-01-05T01:15:17.933Z,10.81
2023-01-05T01:16:17.912Z,10.89
2023-01-05T01:17:17.946Z,10.84
2023-01-05T01:18:17.844Z,10.97
2023-01-05T01:19:17.832Z,10.93
2023-01-05T01:20:17.779Z,10.92
2023-01-05T01:21:17.731Z,10.94
2023-01-05T01:22:17.701Z,10.92
2023-01-05T01:23:17.723Z,10.94
2023-01-05T01:24:17.638Z,10.93
2023-01-05T01:25:17.609Z,10.96
2023-01-05T01:26:17.568Z,10.96
2023-01-05T01:27:17.578Z,11.02
2023-01-05T01:28:17.496Z,11.04
2023-01-05T01:29:17.613Z,11.04
2023-01-05T01:30:17.434Z,11.07
2023-01-05T01:31:17.542Z,11.04
2023-01-05T01:32:17.362Z,11.08
2023-01-05T01:33:17.332Z,11.05
2023-01-05T01:34:17.317Z,11.14
2023-01-05T01:35:17.328Z,11.17
2023-01-05T01:36:17.229Z,11.19
2023-01-05T01:37:17.201Z,11.05
2023-01-05T01:38:17.172Z,11.08
2023-01-05T01:39:17.131Z,11.14
2023-01-05T01:40:17.153Z,11.10
2023-01-05T01:41:17.057Z,11.15
2023-01-05T01:42:17.049Z,11.12
2023-01-05T01:43:16.996Z,11.29
2023-01-05T01:44:16.976Z,11.22
2023-01-05T01:45:16.981Z,11.23
2023-01-05T01:46:16.938Z,11.25
2023-01-05T01:47:16.873Z,11.26
2023-01-05T01:48:16.827Z,11.27
2023-01-05T01:49:16.793Z,11.33
2023-01-05T01:50:16.836Z,11.25
2023-01-05T01:51:16.727Z,11.35
2023-01-05T01:52:16.699Z,11.25
2023-01-05T01:53:16.663Z,11.27
2023-01-05T01:54:16.639Z,11.26
2023-01-05T01:55:16.654Z,11.30
2023-01-05T01:56:16.567Z,11.32
2023-01-05T01:57:16.542Z,11.33
2023-01-05T01:58:16.496Z,11.26
2023-01-05T01:59:16.467Z,11.19
2023-01-05T02:00:16.500Z,11.29
2023-01-05T02:01:16.546Z,11.26
2023-01-05T02:02:16.438Z,11.25
2023-01-05T02:03:16.339Z,11.23
2023-01-05T02:04:16.339Z,11.19
2023-01-05T02:05:16.260Z,11.14
2023-01-05T02:06:16.695Z,11.11
2023-01-05T02:07:16.205Z,11.17
2023-01-05T02:08:16.172Z,11.26
2023-01-05T02:09:16.129Z,11.10
2023-01-05T02:10:16.092Z,11.25
2023-01-05T02:11:16.064Z,11.14
2023-01-05T02:12:16.091Z,11.11
2023-01-05T02:13:16.025Z,11.22
2023-01-05T02:14:15.988Z,11.10
2023-01-05T02:15:15.932Z,11.10
2023-01-05T02:16:15.907Z,11.11
2023-01-05T02:17:15.875Z,11.04
2023-01-05T02:18:15.898Z,11.00
2023-01-05T02:19:15.792Z,11.12
2023-01-05T02:20:15.763Z,11.04
2023-01-05T02:21:17.261Z,11.08
2023-01-05T02:22:15.693Z,11.10
2023-01-05T02:23:15.663Z,11.17
2023-01-05T02:24:15.679Z,11.12
2023-01-05T02:25:15.602Z,11.11
2023-01-05T02:26:15.565Z,11.10
2023-01-05T02:27:15.531Z,11.12
2023-01-05T02:28:15.489Z,11.15
2023-01-05T02:29:15.459Z,11.12
2023-01-05T02:30:15.489Z,11.08
2023-01-05T02:31:15.441Z,11.14
2023-01-05T02:32:15.372Z,11.12
2023-01-05T02:33:15.333Z,11.11
2023-01-05T02:34:15.402Z,11.14
2023-01-05T02:35:15.264Z,11.17
2023-01-05T02:36:15.321Z,11.04
2023-01-05T02:37:15.194Z,11.02
2023-01-05T02:38:15.172Z,10.90
2023-01-05T02:39:15.137Z,10.94
2023-01-05T02:40:15.097Z,10.92
2023-01-05T02:41:15.127Z,10.92
2023-01-05T02:42:15.029Z,10.79
2023-01-05T02:43:14.995Z,10.78
2023-01-05T02:44:14.982Z,10.82
2023-01-05T02:45:14.935Z,10.76
2023-01-05T02:46:14.920Z,10.89
2023-01-05T02:47:14.920Z,10.87
2023-01-05T02:48:14.832Z,10.90
2023-01-05T02:49:14.793Z,10.82
2023-01-05T02:50:14.764Z,10.87
2023-01-05T02:51:14.732Z,10.90
2023-01-05T02:52:14.762Z,11.00
2023-01-05T02:53:14.681Z,10.97
2023-01-05T02:54:14.623Z,10.90
2023-01-05T02:55:14.615Z,10.93
2023-01-05T02:56:14.562Z,10.89
2023-01-05T02:57:14.579Z,10.90
2023-01-05T02:58:14.499Z,10.94
2023-01-05T02:59:14.461Z,10.92
2023-01-05T03:00:14.423Z,10.90
2023-01-05T03:01:14.569Z,10.79
2023-01-05T03:02:14.543Z,10.82
2023-01-05T03:03:14.390Z,10.84
2023-01-05T03:04:14.304Z,10.90
2023-01-05T03:05:14.257Z,10.92
2023-01-05T03:06:14.269Z,10.96
2023-01-05T03:07:14.242Z,10.97
2023-01-05T03:08:14.152Z,10.99
2023-01-05T03:09:14.130Z,11.02
2023-01-05T03:10:14.093Z,10.97
2023-01-05T03:11:14.057Z,11.10
2023-01-05T03:12:14.028Z,11.08
2023-01-05T03:13:14.056Z,11.14
2023-01-05T03:14:13.959Z,11.08
2023-01-05T03:15:13.928Z,11.19
2023-01-05T03:16:13.916Z,11.11
2023-01-05T03:17:13.868Z,11.22
2023-01-05T03:18:13.821Z,11.25
2023-01-05T03:19:13.922Z,11.22
2023-01-05T03:20:13.759Z,11.26
2023-01-05T03:21:13.723Z,11.29
2023-01-05T03:22:13.700Z,11.29
2023-01-05T03:23:13.692Z,11.23
2023-01-05T03:24:13.631Z,11.26
2023-01-05T03:25:13.636Z,11.30
2023-01-05T03:26:13.555Z,11.25
2023-01-05T03:27:13.516Z,11.30
2023-01-05T03:28:13.557Z,11.23
2023-01-05T03:29:13.455Z,11.25
2023-01-05T03:30:13.419Z,11.27
2023-01-05T03:31:13.420Z,11.29
2023-01-05T03:32:13.360Z,11.26
2023-01-05T03:33:13.378Z,11.30
2023-01-05T03:34:13.299Z,11.22
2023-01-05T03:35:13.273Z,11.23
2023-01-05T03:36:13.226Z,11.18
2023-01-05T03:37:13.199Z,11.15
2023-01-05T03:38:17.822Z,11.19
2023-01-05T03:39:13.114Z,11.19
2023-01-05T03:40:13.096Z,11.25
2023-01-05T03:41:13.077Z,11.11
2023-01-05T03:42:13.018Z,11.12
2023-01-05T03:43:13.043Z,11.12
2023-01-05T03:44:12.954Z,11.17
2023-01-05T03:45:12.922Z,11.12
2023-01-05T03:46:12.895Z,11.14
2023-01-05T03:47:12.856Z,11.08
2023-01-05T03:48:12.825Z,11.11
2023-01-05T03:49:12.868Z,11.17
2023-01-05T03:50:12.748Z,11.11
2023-01-05T03:51:12.736Z,11.14
2023-01-05T03:52:12.686Z,11.22
2023-01-05T03:53:12.654Z,11.15
2023-01-05T03:54:12.674Z,11.15
2023-01-05T03:55:12.582Z,11.25
2023-01-05T03:56:12.575Z,11.22
2023-01-05T03:57:12.515Z,11.19
2023-01-05T03:58:12.489Z,11.18
2023-01-05T03:59:12.521Z,11.23
2023-01-05T04:00:12.418Z,11.23
2023-01-05T04:01:12.618Z,11.15
2023-01-05T04:02:12.420Z,11.26
2023-01-05T04:03:12.416Z,11.15
2023-01-05T04:04:12.279Z,11.15
2023-01-05T04:05:12.331Z,11.12
2023-01-05T04:06:12.219Z,11.27
2023-01-05T04:07:12.193Z,11.10
2023-01-05T04:08:12.150Z,11.10
2023-01-05T04:09:12.114Z,11.15
2023-01-05T04:10:12.096Z,11.07
2023-01-05T04:11:12.110Z,11.08
2023-01-05T04:12:12.021Z,11.05
2023-01-05T04:13:11.996Z,11.10
2023-01-05T04:14:11.957Z,11.11
2023-01-05T04:15:11.919Z,11.10
2023-01-05T04:16:11.972Z,11.14
2023-01-05T04:17:11.856Z,11.10
2023-01-05T04:18:11.813Z,11.14
2023-01-05T04:19:11.791Z,11.08
2023-01-05T04:20:11.752Z,11.04
2023-01-05T04:21:11.729Z,10.89
2023-01-05T04:22:11.759Z,10.94
2023-01-05T04:23:11.660Z,10.90
2023-01-05T04:24:11.624Z,10.86
2023-01-05T04:25:11.582Z,10.74
2023-01-05T04:26:11.554Z,10.72
2023-01-05T04:27:11.529Z,10.78
2023-01-05T04:28:11.543Z,10.71
2023-01-05T04:29:11.455Z,10.64
2023-01-05T04:30:11.433Z,10.71
2023-01-05T04:31:11.427Z,10.64
2023-01-05T04:32:11.399Z,10.67
2023-01-05T04:33:11.326Z,10.63
2023-01-05T04:34:11.284Z,10.68
2023-01-05T04:35:11.817Z,10.49
2023-01-05T04:36:11.216Z,10.59
2023-01-05T04:37:11.290Z,10.56
2023-01-05T04:38:11.167Z,10.53
2023-01-05T04:39:11.113Z,10.56
2023-01-05T04:40:11.093Z,10.56
2023-01-05T04:41:11.051Z,10.53
2023-01-05T04:42:11.094Z,10.49
2023-01-05T04:43:10.989Z,10.48
2023-01-05T04:44:10.947Z,10.53
2023-01-05T04:45:10.921Z,10.56
2023-01-05T04:46:10.978Z,10.51
2023-01-05T04:47:10.860Z,10.54
2023-01-05T04:48:10.884Z,10.49
2023-01-05T04:49:10.792Z,10.54
2023-01-05T04:50:10.750Z,10.51
2023-01-05T04:51:10.712Z,10.49
2023-01-05T04:52:10.685Z,10.51
2023-01-05T04:53:10.701Z,10.56
2023-01-05T04:54:10.624Z,10.57
2023-01-05T04:55:10.581Z,10.54
2023-01-05T04:56:10.560Z,10.68
2023-01-05T04:57:10.527Z,10.64
2023-01-05T04:58:12.140Z,10.56
2023-01-05T04:59:10.453Z,10.68
2023-01-05T05:00:10.421Z,10.68
2023-01-05T05:01:10.400Z,10.64
2023-01-05T05:02:10.482Z,10.68
2023-01-05T05:03:10.434Z,10.74
2023-01-05T05:04:10.342Z,10.68
2023-01-05T05:05:10.256Z,10.79
2023-01-05T05:06:10.223Z,10.76
2023-01-05T05:07:10.180Z,10.81
2023-01-05T05:08:10.167Z,10.72
2023-01-05T05:09:10.712Z,10.78
2023-01-05T05:10:10.091Z,10.74
2023-01-05T05:11:10.051Z,10.79
2023-01-05T05:12:10.015Z,10.76
2023-01-05T05:13:09.975Z,10.84
2023-01-05T05:14:10.104Z,10.78
2023-01-05T05:15:09.921Z,10.86
2023-01-05T05:16:09.925Z,10.81
2023-01-05T05:17:09.859Z,10.87
2023-01-05T05:18:09.978Z,10.89
2023-01-05T05:19:09.788Z,10.86
2023-01-05T05:20:09.824Z,10.94
2023-01-05T05:21:09.717Z,10.92
2023-01-05T05:22:09.683Z,10.93
2023-01-05T05:23:09.661Z,11.02
2023-01-05T05:24:09.629Z,11.04
2023-01-05T05:25:09.586Z,11.05
2023-01-05T05:26:09.611Z,11.07
2023-01-05T05:27:09.523Z,11.00
2023-01-05T05:28:09.501Z,11.00
2023-01-05T05:29:09.438Z,11.05
2023-01-05T05:30:09.425Z,11.07
2023-01-05T05:31:09.418Z,11.11
2023-01-05T05:32:09.421Z,11.14
2023-01-05T05:33:09.334Z,11.17
2023-01-05T05:34:09.278Z,11.19
2023-01-05T05:35:09.246Z,11.02
2023-01-05T05:36:09.212Z,11.02
2023-01-05T05:37:09.184Z,11.00
2023-01-05T05:38:09.208Z,11.04
2023-01-05T05:39:09.108Z,11.07
2023-01-05T05:40:09.084Z,11.00
2023-01-05T05:41:09.051Z,11.05
2023-01-05T05:42:09.015Z,11.04
2023-01-05T05:43:08.985Z,11.05
2023-01-05T05:44:09.021Z,11.00
2023-01-05T05:45:08.917Z,11.02
2023-01-05T05:46:08.981Z,11.08
2023-01-05T05:47:08.841Z,10.97
2023-01-05T05:48:08.818Z,11.07
2023-01-05T05:49:08.774Z,11.07
2023-01-05T05:50:08.805Z,11.05
2023-01-05T05:51:08.709Z,11.15
2023-01-05T05:52:08.722Z,11.11
2023-01-05T05:53:08.648Z,11.14
2023-01-05T05:54:08.634Z,11.14
2023-01-05T05:55:08.579Z,11.10
2023-01-05T05:56:08.595Z,11.11
2023-01-05T05:57:08.510Z,11.17
2023-01-05T05:58:08.475Z,11.10
2023-01-05T05:59:08.455Z,11.10
2023-01-05T06:00:08.417Z,11.04
2023-01-05T06:01:08.404Z,11.07
2023-01-05T06:02:08.547Z,10.96
2023-01-05T06:03:08.514Z,10.99
2023-01-05T06:04:08.292Z,10.87
2023-01-05T06:05:08.259Z,10.92
2023-01-05T06:06:08.207Z,10.94
2023-01-05T06:07:08.173Z,10.92
2023-01-05T06:08:08.251Z,10.87
2023-01-05T06:09:08.123Z,10.86
2023-01-05T06:10:08.078Z,10.87
2023-01-05T06:11:08.048Z,10.74
2023-01-05T06:12:08.011Z,10.68
2023-01-05T06:13:07.979Z,10.64
2023-01-05T06:14:08.012Z,10.60
2023-01-05T06:15:07.913Z,10.67
2023-01-05T06:16:07.948Z,10.68
2023-01-05T06:17:07.838Z,10.54
2023-01-05T06:18:07.819Z,10.54
2023-01-05T06:19:07.810Z,10.54
2023-01-05T06:20:07.825Z,10.38
2023-01-05T06:21:07.708Z,10.41
2023-01-05T06:22:07.678Z,10.40
2023-01-05T06:23:07.642Z,10.33
2023-01-05T06:24:07.612Z,10.33
2023-01-05T06:25:07.628Z,10.33
2023-01-05T06:26:07.540Z,10.34
2023-01-05T06:27:07.511Z,10.20
2023-01-05T06:28:07.588Z,10.31
2023-01-05T06:29:07.446Z,10.25
2023-01-05T06:30:07.474Z,10.30
2023-01-05T06:31:07.415Z,10.28
2023-01-05T06:32:07.339Z,10.31
2023-01-05T06:33:07.427Z,10.19
2023-01-05T06:34:07.274Z,10.23
2023-01-05T06:35:07.291Z,10.13
2023-01-05T06:36:07.203Z,10.12
2023-01-05T06:37:07.189Z,10.17
2023-01-05T06:38:07.309Z,10.15
2023-01-05T06:39:07.094Z,10.17
2023-01-05T06:40:07.098Z,10.17
2023-01-05T06:41:07.104Z,10.13
2023-01-05T06:42:07.022Z,10.12
2023-01-05T06:43:06.986Z,10.19
2023-01-05T06:44:06.946Z,10.16
2023-01-05T06:45:06.912Z,10.15
2023-01-05T06:46:06.933Z,10.05
2023-01-05T06:47:06.883Z,10.10
2023-01-05T06:48:06.816Z,10.10
2023-01-05T06:49:06.771Z,10.04
2023-01-05T06:50:06.737Z,10.15
2023-01-05T06:51:06.718Z,10.10
2023-01-05T06:52:10.924Z,10.12
2023-01-05T06:53:06.689Z,10.04
2023-01-05T06:54:06.599Z,10.01
2023-01-05T06:55:06.582Z,10.02
2023-01-05T06:56:06.532Z,10.04
2023-01-05T06:57:06.494Z,9.99
2023-01-05T06:58:06.460Z,10.04
2023-01-05T06:59:06.502Z,9.97
2023-01-05T07:00:06.400Z,9.95
2023-01-05T07:01:06.404Z,9.92
2023-01-05T07:02:06.349Z,9.97
2023-01-05T07:03:06.318Z,9.87
2023-01-05T07:04:06.330Z,9.83
2023-01-05T07:05:06.266Z,9.83
2023-01-05T07:06:10.068Z,9.76
2023-01-05T07:07:06.159Z,9.74
2023-01-05T07:08:06.122Z,9.79
2023-01-05T07:09:06.091Z,9.66
2023-01-05T07:10:06.125Z,9.44
2023-01-05T07:11:06.016Z,9.37
2023-01-05T07:12:05.975Z,9.36
2023-01-05T07:13:05.953Z,9.32
2023-01-05T07:14:05.922Z,9.21
2023-01-05T07:15:05.877Z,9.21
2023-01-05T07:16:05.965Z,9.14
2023-01-05T07:17:05.818Z,9.25
2023-01-05T07:18:05.791Z,9.26
2023-01-05T07:19:05.743Z,9.29
2023-01-05T07:20:05.710Z,9.23
2023-01-05T07:21:05.678Z,9.28
2023-01-05T07:22:05.707Z,9.25
2023-01-05T07:23:05.614Z,9.26
2023-01-05T07:24:05.585Z,9.31
2023-01-05T07:25:05.531Z,9.23
2023-01-05T07:26:05.504Z,9.34
2023-01-05T07:27:09.618Z,9.29
2023-01-05T07:28:05.499Z,9.29
2023-01-05T07:29:05.392Z,9.29
2023-01-05T07:30:05.363Z,9.28
2023-01-05T07:31:05.323Z,9.31
2023-01-05T07:32:05.385Z,9.29
2023-01-05T07:33:05.279Z,9.32
2023-01-05T07:34:05.283Z,9.23
2023-01-05T07:35:05.196Z,9.22
2023-01-05T07:36:05.171Z,9.26
2023-01-05T07:37:05.120Z,9.29
2023-01-05T07:38:05.096Z,9.28
2023-01-05T07:39:05.056Z,9.28
2023-01-05T07:40:05.081Z,9.26
2023-01-05T07:41:05.031Z,9.23
2023-01-05T07:42:04.948Z,9.19
2023-01-05T07:43:04.910Z,9.25
2023-01-05T07:44:04.884Z,9.21
2023-01-05T07:45:04.835Z,9.21
2023-01-05T07:46:04.942Z,9.19
2023-01-05T07:47:04.778Z,9.22
2023-01-05T07:48:04.742Z,9.21
2023-01-05T07:49:04.707Z,9.10
2023-01-05T07:50:04.700Z,9.16
2023-01-05T07:51:04.675Z,9.19
2023-01-05T07:52:04.652Z,9.08
2023-01-05T07:53:04.564Z,9.16
2023-01-05T07:54:04.538Z,9.08
2023-01-05T07:55:04.488Z,8.95
2023-01-05T07:56:04.470Z,9.00
2023-01-05T07:57:04.487Z,9.03
2023-01-05T07:58:04.400Z,8.94
2023-01-05T07:59:04.381Z,8.92
2023-01-05T08:00:04.354Z,8.97
2023-01-05T08:01:04.396Z,8.92
2023-01-05T08:02:04.415Z,8.88
2023-01-05T08:03:04.261Z,8.88
2023-01-05T08:04:04.277Z,8.88
2023-01-05T08:05:04.182Z,8.84
2023-01-05T08:06:04.118Z,8.84
2023-01-05T08:07:04.080Z,8.87
2023-01-05T08:08:04.106Z,8.88
2023-01-05T08:09:04.033Z,8.82
2023-01-05T08:10:03.981Z,8.85
2023-01-05T08:11:03.952Z,8.91
2023-01-05T08:12:03.913Z,8.94
2023-01-05T08:13:03.870Z,9.00
2023-01-05T08:14:03.897Z,8.99
2023-01-05T08:15:03.833Z,8.99
2023-01-05T08:16:03.923Z,9.04
2023-01-05T08:17:03.744Z,9.13
2023-01-05T08:18:03.707Z,9.11
2023-01-05T08:19:09.224Z,9.08
2023-01-05T08:20:03.697Z,9.18
2023-01-05T08:21:03.603Z,9.13
2023-01-05T08:22:03.580Z,9.21
2023-01-05T08:23:03.536Z,9.16
2023-01-05T08:24:03.491Z,9.23
2023-01-05T08:25:03.463Z,9.31
2023-01-05T08:26:03.479Z,9.25
2023-01-05T08:27:03.521Z,9.37
2023-01-05T08:28:03.354Z,9.44
2023-01-05T08:29:03.337Z,9.51
2023-01-05T08:30:03.287Z,9.58
2023-01-05T08:31:03.252Z,9.69
2023-01-05T08:32:03.303Z,9.56
2023-01-05T08:33:03.182Z,9.58
2023-01-05T08:34:03.146Z,9.66
2023-01-05T08:35:03.114Z,9.73
2023-01-05T08:36:03.081Z,9.72
2023-01-05T08:37:03.056Z,9.69
2023-01-05T08:38:03.084Z,9.76
2023-01-05T08:39:02.978Z,9.74
2023-01-05T08:40:02.963Z,9.74
2023-01-05T08:41:02.913Z,9.82
2023-01-05T08:42:03.164Z,9.87
2023-01-05T08:43:02.845Z,9.76
2023-01-05T08:44:02.865Z,9.74
2023-01-05T08:45:02.768Z,9.72
2023-01-05T08:46:02.818Z,9.66
2023-01-05T08:47:02.701Z,9.74
2023-01-05T08:48:02.664Z,9.65
2023-01-05T08:49:02.653Z,9.68
2023-01-05T08:50:02.646Z,9.62
2023-01-05T08:51:02.568Z,9.64
2023-01-05T08:52:02.526Z,9.62
2023-01-05T08:53:02.499Z,9.73
2023-01-05T08:54:02.467Z,9.62
2023-01-05T08:55:02.422Z,9.65
2023-01-05T08:56:02.461Z,9.76
2023-01-05T08:57:02.372Z,9.77
2023-01-05T08:58:02.387Z,9.77
2023-01-05T08:59:02.297Z,9.74
2023-01-05T09:00:02.303Z,9.76
2023-01-05T09:01:02.302Z,9.76
2023-01-05T09:02:02.395Z,9.76
2023-01-05T09:03:02.218Z,9.74
2023-01-05T09:04:02.130Z,9.76
2023-01-05T09:05:02.092Z,9.76
2023-01-05T09:06:02.119Z,9.76
2023-01-05T09:07:02.029Z,9.76
2023-01-05T09:08:01.991Z,9.73
2023-01-05T09:09:01.974Z,9.79
2023-01-05T09:10:01.921Z,9.83
2023-01-05T09:11:01.889Z,9.86
2023-01-05T09:12:01.910Z,9.91
2023-01-05T09:13:01.822Z,9.87
2023-01-05T09:14:01.786Z,9.97
2023-01-05T09:15:01.751Z,10.13
2023-01-05T09:16:01.708Z,10.16
2023-01-05T09:17:09.579Z,10.30
2023-01-05T09:18:01.810Z,10.42
2023-01-05T09:19:01.670Z,10.51
2023-01-05T09:20:01.573Z,10.61
2023-01-05T09:21:01.555Z,10.69
2023-01-05T09:22:01.505Z,10.74
2023-01-05T09:23:01.469Z,10.78
2023-01-05T09:24:01.495Z,10.81
2023-01-05T09:25:01.420Z,10.87
2023-01-05T09:26:01.372Z,10.76
2023-01-05T09:27:01.428Z,10.71
2023-01-05T09:28:01.424Z,10.68
2023-01-05T09:29:01.321Z,10.68
2023-01-05T09:30:01.527Z,10.63
2023-01-05T09:31:01.374Z,10.44
2023-01-05T09:32:01.380Z,10.48
2023-01-05T09:33:01.276Z,10.26
2023-01-05T09:34:01.199Z,10.20
2023-01-05T09:35:01.158Z,10.25
2023-01-05T09:36:01.187Z,10.26
2023-01-05T09:37:01.155Z,10.16
2023-01-05T09:38:01.242Z,10.17
2023-01-05T09:39:00.949Z,10.13
2023-01-05T09:40:00.931Z,10.15
2023-01-05T09:41:00.873Z,10.02
2023-01-05T09:42:00.836Z,9.99
2023-01-05T09:43:00.810Z,9.95
2023-01-05T09:44:00.816Z,9.94
2023-01-05T09:45:00.750Z,9.83
2023-01-05T09:46:00.828Z,9.86
2023-01-05T09:47:00.663Z,9.84
2023-01-05T09:48:00.630Z,9.73
2023-01-05T09:49:00.653Z,9.77
2023-01-05T09:50:00.565Z,9.72
2023-01-05T09:51:00.532Z,9.61
2023-01-05T09:52:00.491Z,9.59
2023-01-05T09:53:00.484Z,9.58
2023-01-05T09:54:00.425Z,9.48
2023-01-05T09:55:00.450Z,9.51
2023-01-05T09:56:00.361Z,9.54
2023-01-05T09:57:09.665Z,9.41
2023-01-05T09:58:00.288Z,9.43
2023-01-05T09:59:00.257Z,9.40
2023-01-05T10:00:00.283Z,9.43
2023-01-05T10:01:00.198Z,9.46
2023-01-05T10:02:00.234Z,9.43
2023-01-05T10:03:00.231Z,9.44
2023-01-05T10:04:04.518Z,9.41
2023-01-05T10:05:00.190Z,9.44
2023-01-05T10:06:00.025Z,9.37
2023-01-05T10:06:59.975Z,9.39
2023-01-05T10:07:59.944Z,9.41
2023-01-05T10:08:59.914Z,9.40
2023-01-05T10:09:59.874Z,9.46
2023-01-05T10:10:59.946Z,9.44
2023-01-05T10:11:59.811Z,9.47
2023-01-05T10:12:59.779Z,9.41
2023-01-05T10:13:59.738Z,9.48
2023-01-05T10:14:59.705Z,9.54
2023-01-05T10:15:59.701Z,9.64
2023-01-05T10:17:30.572Z,9.66
2023-01-05T10:17:59.673Z,9.76
2023-01-05T10:18:59.575Z,9.80
2023-01-05T10:19:59.555Z,9.91
2023-01-05T10:20:59.509Z,9.99
2023-01-05T10:21:59.477Z,10.16
2023-01-05T10:22:59.513Z,10.19
2023-01-05T10:23:59.405Z,10.28
2023-01-05T10:24:59.364Z,10.28
2023-01-05T10:25:59.330Z,10.33
2023-01-05T10:27:24.121Z,10.44
2023-01-05T10:27:59.259Z,10.53
2023-01-05T10:28:59.289Z,10.51
2023-01-05T10:29:59.199Z,10.57
2023-01-05T10:30:59.207Z,10.48
2023-01-05T10:31:59.123Z,10.63
2023-01-05T10:33:21.978Z,10.64
2023-01-05T10:34:05.097Z,10.68
2023-01-05T10:34:59.343Z,10.75
2023-01-05T10:36:01.756Z,10.72
2023-01-05T10:37:08.422Z,10.78
2023-01-05T10:37:58.917Z,10.69
2023-01-05T10:38:58.880Z,10.68
2023-01-05T10:39:58.862Z,10.63
2023-01-05T10:40:58.889Z,10.61
2023-01-05T10:41:58.789Z,10.63
2023-01-05T10:42:58.754Z,10.57
2023-01-05T10:43:58.714Z,10.56
2023-01-05T10:44:58.689Z,10.57
2023-01-05T10:46:30.684Z,10.53
2023-01-05T10:46:58.741Z,10.63
2023-01-05T10:47:58.630Z,10.60
2023-01-05T10:48:58.561Z,10.67
2023-01-05T10:49:58.589Z,10.64
2023-01-05T10:50:58.495Z,10.68
2023-01-05T10:51:58.453Z,10.68
2023-01-05T10:52:58.485Z,10.54
2023-01-05T10:53:58.370Z,10.51
2023-01-05T10:54:58.353Z,10.51
2023-01-05T10:55:58.317Z,10.53
2023-01-05T10:56:58.280Z,10.63
2023-01-05T10:57:58.264Z,10.63
2023-01-05T10:58:58.290Z,10.63
2023-01-05T10:59:58.214Z,10.69
2023-01-05T11:00:58.153Z,10.56
2023-01-05T11:01:58.152Z,10.68
2023-01-05T11:02:58.089Z,10.67
2023-01-05T11:04:25.553Z,10.68
2023-01-05T11:04:58.110Z,10.78
2023-01-05T11:05:58.057Z,10.68
2023-01-05T11:06:57.939Z,10.64
2023-01-05T11:07:57.901Z,10.68
2023-01-05T11:08:57.873Z,10.76
2023-01-05T11:09:57.840Z,10.76
2023-01-05T11:10:57.855Z,10.76
2023-01-05T11:11:57.780Z,10.75
2023-01-05T11:12:57.733Z,10.75
2023-01-05T11:13:57.730Z,10.71
2023-01-05T11:14:59.171Z,10.64
2023-01-05T11:15:57.692Z,10.63
2023-01-05T11:16:57.658Z,10.72
2023-01-05T11:17:57.582Z,10.64
2023-01-05T11:18:57.546Z,10.67
2023-01-05T11:19:57.512Z,10.53
2023-01-05T11:20:57.487Z,10.60
2023-01-05T11:22:01.917Z,10.57
2023-01-05T11:22:57.460Z,10.49
2023-01-05T11:23:57.388Z,10.54
2023-01-05T11:24:57.407Z,10.54
2023-01-05T11:25:57.312Z,10.60
2023-01-05T11:26:57.265Z,10.56
2023-01-05T11:28:01.981Z,10.57
2023-01-05T11:28:57.294Z,10.48
2023-01-05T11:29:57.178Z,10.54
2023-01-05T11:30:57.178Z,10.64
2023-01-05T11:31:57.102Z,10.64
2023-01-05T11:32:57.064Z,10.49
2023-01-05T11:33:57.036Z,10.63
2023-01-05T11:34:57.067Z,10.60
2023-01-05T11:35:56.974Z,10.59
2023-01-05T11:36:59.175Z,10.46
2023-01-05T11:37:56.974Z,10.69
2023-01-05T11:38:56.876Z,10.67
2023-01-05T11:39:56.850Z,10.59
2023-01-05T11:40:56.853Z,10.54
2023-01-05T11:41:56.771Z,10.60
2023-01-05T11:42:56.730Z,10.59
2023-01-05T11:43:56.695Z,10.68
2023-01-05T11:44:56.667Z,10.60
2023-01-05T11:45:56.721Z,10.59
2023-01-05T11:46:56.695Z,10.60
2023-01-05T11:47:56.556Z,10.60
2023-01-05T11:48:56.541Z,10.57
2023-01-05T11:49:58.631Z,10.63
2023-01-05T11:50:56.473Z,10.69
2023-01-05T11:51:56.433Z,10.63
2023-01-05T11:52:56.520Z,10.64
2023-01-05T11:53:56.447Z,10.63
2023-01-05T11:54:56.326Z,10.68
2023-01-05T11:55:56.295Z,10.63
2023-01-05T11:56:56.258Z,10.68
2023-01-05T11:58:00.276Z,10.68
2023-01-05T11:58:56.252Z,10.68
2023-01-05T11:59:56.158Z,10.78
2023-01-05T12:00:56.203Z,10.76
2023-01-05T12:01:56.127Z,10.71
2023-01-05T12:02:56.108Z,10.67
2023-01-05T12:03:58.827Z,10.74
2023-01-05T12:04:56.605Z,10.69
2023-01-05T12:05:55.953Z,10.61
2023-01-05T12:06:55.931Z,10.63
2023-01-05T12:07:55.903Z,10.67
2023-01-05T12:08:55.905Z,10.63
2023-01-05T12:09:55.886Z,10.63
2023-01-05T12:10:55.851Z,10.48
2023-01-05T12:11:55.773Z,10.61
2023-01-05T12:12:55.737Z,10.68
2023-01-05T12:13:55.691Z,10.61
2023-01-05T12:14:55.648Z,10.61
2023-01-05T12:16:01.702Z,10.60
2023-01-05T12:16:55.688Z,10.57
2023-01-05T12:17:55.555Z,10.60
2023-01-05T12:18:55.515Z,10.61
2023-01-05T12:19:55.491Z,10.49
2023-01-05T12:20:55.451Z,10.61
2023-01-05T12:22:02.125Z,10.56
2023-01-05T12:22:55.430Z,10.51
2023-01-05T12:23:55.343Z,10.59
2023-01-05T12:24:55.311Z,10.54
2023-01-05T12:25:55.352Z,10.67
2023-01-05T12:26:55.253Z,10.60
2023-01-05T12:27:58.061Z,10.57
2023-01-05T12:29:49.854Z,10.69
2023-01-05T12:34:05.131Z,10.63
2023-01-05T12:34:54.973Z,10.63
2023-01-05T12:35:54.938Z,10.68
2023-01-05T12:36:54.909Z,10.71
2023-01-05T12:37:54.875Z,10.68
2023-01-05T12:38:54.878Z,10.64
2023-01-05T12:39:54.867Z,10.71
2023-01-05T12:40:54.768Z,10.82
2023-01-05T12:41:54.806Z,10.89
2023-01-05T12:42:54.701Z,10.75
2023-01-05T12:43:54.675Z,10.76
2023-01-05T12:44:54.642Z,10.78
2023-01-05T12:45:54.683Z,10.78
2023-01-05T12:46:54.624Z,10.90
2023-01-05T12:47:54.540Z,10.82
2023-01-05T12:48:54.507Z,10.81
2023-01-05T12:49:54.466Z,10.84
2023-01-05T12:50:54.438Z,10.89
2023-01-05T12:51:54.464Z,10.84
2023-01-05T12:52:54.381Z,10.82
2023-01-05T12:53:54.338Z,10.76
2023-01-05T12:54:54.304Z,10.75
2023-01-05T12:55:54.290Z,10.67
2023-01-05T12:56:54.237Z,10.72
2023-01-05T12:57:54.338Z,10.64
2023-01-05T12:58:54.425Z,10.60
2023-01-05T12:59:54.151Z,10.67
2023-01-05T13:00:54.142Z,10.64
2023-01-05T13:01:54.154Z,10.68